Time;durP1;ratioP1;P1;durP2;ratioP2;P2;SDS_P1;SDS_P2;PMS_P1;PMS_P2;Temp;Humidity;BMP_temperature;BMP_pressure;BME280_temperature;BME280_humidity;BME280_pressure;Samples;Min_cycle;Max_cycle;Signal;HPM_P1;HPM_P2
2022/01/10 00:00:37;;;;;;;25.65;11.60;;;;;;;0.13;90.58;100900.88;5013828;28;20029;-76
2022/01/10 00:03:04;;;;;;;28.20;12.73;;;;;;;0.10;90.46;100910.66;4997552;28;20455;-76
2022/01/10 00:05:29;;;;;;;28.80;11.45;;;;;;;0.05;90.07;100923.13;4992348;28;20030;-76
2022/01/10 00:07:54;;;;;;;27.48;12.75;;;;;;;0.02;89.90;100924.09;4998790;28;20501;-76
2022/01/10 00:10:20;;;;;;;26.50;11.52;;;;;;;-0.01;90.58;100930.31;5007985;28;20056;-76
2022/01/10 00:12:46;;;;;;;23.80;11.85;;;;;;;-0.01;90.72;100929.47;5010601;28;20052;-76
2022/01/10 00:15:12;;;;;;;26.63;12.13;;;;;;;-0.05;90.46;100933.94;5010675;28;20037;-76
2022/01/10 00:17:38;;;;;;;25.92;11.68;;;;;;;-0.06;90.49;100942.81;5011888;28;20084;-77
2022/01/10 00:20:15;;;;;;;27.27;12.27;;;;;;;-0.03;90.33;100948.00;4994057;28;20348;-77
2022/01/10 00:22:45;;;;;;;30.45;12.68;;;;;;;-0.07;90.11;100945.50;4992025;28;20037;-77
2022/01/10 00:25:11;;;;;;;;;;;;;;;0.04;90.20;100948.69;5011228;28;20029;-77
2022/01/10 00:27:37;;;;;;;26.65;12.43;;;;;;;-0.02;90.32;100948.84;5011107;28;19913;-77
2022/01/10 00:30:02;;;;;;;24.55;12.25;;;;;;;-0.03;91.09;100950.66;5010390;28;20026;-76
2022/01/10 00:32:28;;;;;;;37.75;13.98;;;;;;;-0.04;90.77;100940.97;4992457;28;20033;-76
2022/01/10 00:34:53;;;;;;;27.80;12.93;;;;;;;-0.06;90.12;100941.91;5012408;28;20041;-76
2022/01/10 00:37:18;;;;;;;27.38;12.48;;;;;;;-0.08;90.29;100949.88;4991550;28;20390;-76
2022/01/10 00:39:46;;;;;;;29.92;14.00;;;;;;;-0.11;90.32;100946.47;4992554;28;20014;-76
2022/01/10 00:42:13;;;;;;;29.60;13.43;;;;;;;-0.11;90.65;100943.84;5010258;28;20115;-76
2022/01/10 00:44:44;;;;;;;29.83;13.95;;;;;;;-0.14;90.06;100950.06;5010246;28;20064;-76
2022/01/10 00:47:09;;;;;;;27.80;12.60;;;;;;;-0.13;90.52;100956.19;5011254;28;20493;-76
2022/01/10 00:49:35;;;;;;;27.10;12.90;;;;;;;-0.15;90.35;100958.03;5010328;28;20081;-76
2022/01/10 00:52:00;;;;;;;28.40;13.43;;;;;;;-0.12;90.82;100964.09;5011385;28;20463;-76
2022/01/10 00:54:25;;;;;;;30.08;12.88;;;;;;;-0.15;90.62;100966.81;5010144;28;20103;-76
2022/01/10 00:56:50;;;;;;;26.45;12.13;;;;;;;-0.17;90.02;100973.94;5010388;28;20032;-76
2022/01/10 00:59:16;;;;;;;27.15;12.35;;;;;;;-0.16;90.43;100980.06;5009771;28;20026;-76
2022/01/10 01:01:41;;;;;;;27.92;12.55;;;;;;;-0.19;89.52;100981.00;5013407;28;20029;-76
2022/01/10 01:04:07;;;;;;;28.30;12.02;;;;;;;-0.22;89.83;100987.25;5010143;28;20120;-76
2022/01/10 01:06:32;;;;;;;27.98;14.02;;;;;;;-0.23;90.78;100990.78;5008449;28;20069;-76
2022/01/10 01:08:59;;;;;;;26.58;13.07;;;;;;;-0.22;90.79;100989.00;4990894;28;20151;-76
2022/01/10 01:14:10;;;;;;;28.75;13.35;;;;;;;-0.26;90.35;101008.50;5009803;28;20053;-77
2022/01/10 01:24:29;;;;;;;27.92;12.90;;;;;;;-0.30;89.82;101027.97;4999848;28;20069;-76
2022/01/10 01:26:54;;;;;;;26.48;13.13;;;;;;;-0.30;90.44;101033.25;5010418;28;20451;-76
2022/01/10 01:29:23;;;;;;;25.33;12.80;;;;;;;-0.33;90.07;101035.97;5009214;28;20026;-76
2022/01/10 01:31:48;;;;;;;28.23;12.98;;;;;;;-0.34;89.65;101036.88;5021774;28;20033;-76
2022/01/10 01:34:15;;;;;;;29.85;13.15;;;;;;;-0.38;89.72;101044.00;5014070;28;20064;-76
2022/01/10 01:36:47;;;;;;;24.92;11.75;;;;;;;-0.41;89.62;101047.59;5009602;28;20022;-76
2022/01/10 01:39:23;;;;;;;29.10;12.75;;;;;;;-0.41;89.73;101050.25;5009092;28;20446;-76
2022/01/10 01:41:51;;;;;;;34.75;13.73;;;;;;;-0.38;91.13;101044.88;5009210;28;20025;-76
2022/01/10 01:44:17;;;;;;;35.13;15.13;;;;;;;-0.32;91.54;101050.91;5009334;28;20056;-76
2022/01/10 01:46:42;;;;;;;26.02;12.82;;;;;;;-0.31;90.63;101065.84;5013099;28;20022;-76
2022/01/10 01:49:10;;;;;;;28.50;11.77;;;;;;;-0.34;90.09;101071.22;4991747;28;20100;-76
2022/01/10 01:51:36;;;;;;;30.17;13.57;;;;;;;-0.37;90.06;101075.69;4990873;28;20030;-76
2022/01/10 01:54:03;;;;;;;29.70;11.65;;;;;;;-0.39;89.77;101085.38;4990945;28;20406;-76
2022/01/10 01:56:28;;;;;;;28.33;13.40;;;;;;;-0.37;90.44;101083.59;4990755;28;20393;-76
2022/01/10 01:58:54;;;;;;;29.88;12.65;;;;;;;-0.35;90.04;101091.47;5009551;28;20033;-76
2022/01/10 02:01:21;;;;;;;35.13;15.05;;;;;;;-0.36;91.16;101082.66;5019045;28;20037;-75
2022/01/10 02:03:47;;;;;;;31.50;13.40;;;;;;;-0.34;90.48;101089.69;5009956;28;20343;-74
2022/01/10 02:06:14;;;;;;;31.98;12.75;;;;;;;-0.32;91.07;101090.50;5008353;28;20033;-74
2022/01/10 02:08:40;;;;;;;25.08;12.50;;;;;;;-0.35;90.83;101091.47;5008366;28;20038;-74
2022/01/10 02:11:07;;;;;;;30.13;13.35;;;;;;;-0.32;91.20;101101.09;4996581;28;20053;-74
2022/01/10 02:13:32;;;;;;;28.55;14.20;;;;;;;-0.33;91.08;101094.94;4987868;28;20113;-74
2022/01/10 02:16:03;;;;;;;27.55;13.95;;;;;;;-0.32;90.80;101099.31;5003001;28;20785;-74
2022/01/10 02:18:29;;;;;;;25.60;12.07;;;;;;;-0.31;90.54;101102.81;4988767;28;20026;-74
2022/01/10 02:21:00;;;;;;;32.40;13.80;;;;;;;-0.36;90.23;101098.50;4987139;28;20077;-74
2022/01/10 02:23:27;;;;;;;27.27;13.38;;;;;;;-0.32;90.47;101099.31;4989298;28;20172;-74
2022/01/10 02:25:52;;;;;;;27.55;12.00;;;;;;;-0.32;90.41;101114.28;4986837;28;20025;-74
2022/01/10 02:28:17;;;;;;;28.98;13.55;;;;;;;-0.30;90.80;101107.22;4988542;28;20026;-74
2022/01/10 02:30:43;;;;;;;27.95;13.10;;;;;;;-0.29;90.84;101109.81;4990065;28;20474;-74
2022/01/10 02:33:08;;;;;;;25.77;12.40;;;;;;;-0.24;91.22;101117.63;4988886;28;20037;-74
2022/01/10 02:35:42;;;;;;;27.77;13.25;;;;;;;-0.22;91.22;101115.81;4986597;28;20109;-74
2022/01/10 02:38:08;;;;;;;30.65;14.48;;;;;;;-0.21;91.56;101120.19;4989146;28;20030;-74
2022/01/10 02:40:34;;;;;;;26.92;13.18;;;;;;;-0.19;91.55;101128.94;4986317;28;20025;-74
2022/01/10 02:43:01;;;;;;;31.13;14.02;;;;;;;-0.13;91.73;101142.00;4988263;28;20029;-74
2022/01/10 02:45:27;;;;;;;26.70;12.57;;;;;;;-0.06;91.79;101143.59;4988438;28;20029;-74
2022/01/10 02:47:53;;;;;;;27.23;13.38;;;;;;;0.02;92.37;101148.69;4988445;28;20030;-74
2022/01/10 02:50:20;;;;;;;29.10;14.30;;;;;;;0.09;92.45;101150.28;4988529;28;20045;-74
2022/01/10 02:52:46;;;;;;;33.85;15.23;;;;;;;0.14;91.90;101161.59;4987732;28;20049;-74
2022/01/10 02:55:13;;;;;;;30.02;14.25;;;;;;;0.17;91.67;101166.78;4989045;28;20149;-74
2022/01/10 02:57:39;;;;;;;31.27;15.35;;;;;;;0.17;91.20;101174.72;4987246;28;20121;-74
2022/01/10 03:00:17;;;;;;;34.10;13.07;;;;;;;0.19;91.19;101181.75;4988563;28;20091;-74
2022/01/10 03:02:44;;;;;;;29.58;13.57;;;;;;;0.15;91.23;101175.69;4988012;28;20057;-74
2022/01/10 03:05:10;;;;;;;27.50;14.18;;;;;;;0.14;91.03;101184.50;4988129;28;20502;-74
2022/01/10 03:07:36;;;;;;;29.20;12.85;;;;;;;0.12;91.09;101184.56;4988423;28;20107;-74
2022/01/10 03:10:04;;;;;;;29.55;13.73;;;;;;;0.10;91.32;101191.66;4987557;28;20026;-74
2022/01/10 03:12:31;;;;;;;31.73;13.48;;;;;;;0.10;91.55;101196.94;5007641;28;20041;-74
2022/01/10 03:14:58;;;;;;;30.55;13.45;;;;;;;0.09;91.12;101207.53;5000282;28;20536;-74
2022/01/10 03:17:23;;;;;;;36.80;13.75;;;;;;;0.11;91.51;101205.75;4996645;28;20082;-74
2022/01/10 03:19:49;;;;;;;25.95;12.80;;;;;;;0.09;91.32;101203.13;5001996;28;20401;-74
2022/01/10 03:22:14;;;;;;;27.17;13.07;;;;;;;0.07;90.62;101212.00;5008464;28;20129;-74
2022/01/10 03:24:39;;;;;;;28.05;12.88;;;;;;;0.07;91.07;101209.34;5007476;28;20065;-74
2022/01/10 03:27:05;;;;;;;28.58;13.82;;;;;;;0.05;90.83;101213.81;5007583;28;20041;-74
2022/01/10 03:29:30;;;;;;;27.33;14.07;;;;;;;0.05;91.21;101219.09;5007521;28;20030;-74
2022/01/10 03:31:55;;;;;;;27.67;13.43;;;;;;;0.06;90.89;101219.06;5016317;28;20030;-74
2022/01/10 03:34:21;;;;;;;28.58;12.60;;;;;;;0.04;90.67;101227.94;5008668;28;20046;-74
2022/01/10 03:36:46;;;;;;;27.15;12.98;;;;;;;0.03;90.54;101237.63;4989616;28;20053;-74
2022/01/10 03:39:13;;;;;;;29.23;12.68;;;;;;;0.02;90.52;101241.19;4989307;28;20115;-74
2022/01/10 03:41:39;;;;;;;27.20;12.68;;;;;;;0.01;90.50;101250.00;4989713;28;20033;-74
2022/01/10 03:44:05;;;;;;;27.27;12.48;;;;;;;0.02;90.64;101253.53;4988641;28;20038;-74
2022/01/10 03:46:32;;;;;;;25.25;11.95;;;;;;;0.00;90.30;101264.13;5008741;28;20117;-74
2022/01/10 03:49:01;;;;;;;27.33;12.68;;;;;;;0.01;90.66;101265.84;5007740;28;20418;-74
2022/01/10 03:51:27;;;;;;;24.17;11.00;;;;;;;0.01;90.89;101284.34;4989543;28;20033;-74
2022/01/10 03:53:52;;;;;;;31.27;15.30;;;;;;;0.01;90.44;101275.56;4989773;28;20084;-74
2022/01/10 03:56:19;;;;;;;34.03;13.82;;;;;;;-0.02;90.38;101272.06;4990904;28;20038;-74
2022/01/10 03:58:44;;;;;;;28.52;12.95;;;;;;;-0.01;90.33;101273.81;5007710;28;20040;-74
2022/01/10 04:01:11;;;;;;;27.40;12.43;;;;;;;-0.01;90.35;101276.47;4989791;28;20148;-74
2022/01/10 04:03:37;;;;;;;27.08;12.73;;;;;;;-0.02;90.52;101287.06;5008108;28;20435;-74
2022/01/10 04:06:03;;;;;;;29.63;12.95;;;;;;;0.01;90.67;101291.44;4989209;28;20030;-74
2022/01/10 04:08:28;;;;;;;34.17;13.20;;;;;;;-0.01;90.54;101299.38;5006816;28;20477;-74
2022/01/10 04:10:54;;;;;;;29.75;13.30;;;;;;;0.02;90.99;101294.03;5007512;28;20046;-74
2022/01/10 04:13:19;;;;;;;29.13;13.07;;;;;;;0.05;91.16;101290.47;5006848;28;20033;-74
2022/01/10 04:15:44;;;;;;;27.58;13.18;;;;;;;0.08;91.08;101293.88;4989610;28;20494;-75
2022/01/10 04:18:10;;;;;;;24.92;11.88;;;;;;;0.08;90.92;101301.81;4994658;28;20056;-74
2022/01/10 04:20:35;;;;;;;29.88;13.68;;;;;;;0.12;91.21;101300.00;5009913;28;20188;-74
2022/01/10 04:23:01;;;;;;;31.42;13.93;;;;;;;0.12;91.65;101302.63;4992251;28;20092;-74
2022/01/10 04:25:26;;;;;;;28.60;13.57;;;;;;;0.13;91.90;101310.53;5010948;28;20525;-74
2022/01/10 04:27:52;;;;;;;28.52;13.93;;;;;;;0.15;91.86;101315.78;5010788;28;20116;-74
2022/01/10 04:30:17;;;;;;;26.73;14.40;;;;;;;0.16;92.33;101318.38;4993574;28;20026;-74
2022/01/10 04:32:44;;;;;;;29.92;14.88;;;;;;;0.18;92.03;101323.63;4992495;28;20061;-74
2022/01/10 04:35:10;;;;;;;33.72;14.95;;;;;;;0.20;92.40;101326.25;5010139;28;20033;-74
2022/01/10 04:37:36;;;;;;;30.50;14.40;;;;;;;0.23;92.23;101323.53;5010307;28;20046;-75
2022/01/10 04:40:01;;;;;;;27.80;14.45;;;;;;;0.23;91.90;101342.88;5010811;28;20042;-74
2022/01/10 04:42:27;;;;;;;36.13;16.50;;;;;;;0.24;92.33;101346.41;4992454;28;20076;-74
2022/01/10 04:44:52;;;;;;;35.10;14.73;;;;;;;0.25;92.01;101349.03;5010994;28;20105;-74
2022/01/10 04:47:18;;;;;;;30.23;14.90;;;;;;;0.27;92.25;101355.13;5009889;28;20117;-74
2022/01/10 04:50:13;;;;;;;29.98;14.60;;;;;;;0.30;92.06;101368.28;4992181;28;20030;-74
2022/01/10 04:52:38;;;;;;;31.80;15.18;;;;;;;0.33;92.28;101370.00;5009494;28;20112;-74
2022/01/10 04:55:04;;;;;;;35.17;16.75;;;;;;;0.33;92.41;101378.78;4992463;28;20203;-74
2022/01/10 04:57:30;;;;;;;26.55;12.80;;;;;;;0.35;91.78;101384.03;4992906;28;20092;-74
2022/01/10 04:59:55;;;;;;;29.45;15.82;;;;;;;0.38;92.04;101385.75;4993027;28;20042;-74
2022/01/10 05:02:20;;;;;;;28.33;15.05;;;;;;;0.38;91.78;101388.41;4992341;28;20478;-74
2022/01/10 05:04:45;;;;;;;38.83;14.75;;;;;;;0.40;91.79;101407.75;4991689;28;20037;-75
2022/01/10 05:07:11;;;;;;;28.98;14.38;;;;;;;0.41;91.84;101394.50;5009570;28;20034;-74
2022/01/10 05:09:37;;;;;;;33.53;15.68;;;;;;;0.43;91.81;101405.03;4992758;28;20105;-74
2022/01/10 05:12:02;;;;;;;35.03;15.60;;;;;;;0.43;91.96;101415.63;4992052;28;20517;-74
2022/01/10 05:14:28;;;;;;;36.00;16.40;;;;;;;0.48;92.41;101427.84;5014710;28;20492;-74
2022/01/10 05:16:53;;;;;;;29.88;16.17;;;;;;;0.48;92.46;101432.25;4996949;28;20029;-74
2022/01/10 05:19:18;;;;;;;30.45;16.23;;;;;;;0.51;92.39;101426.88;4991549;28;20026;-74
2022/01/10 05:21:44;;;;;;;31.80;15.20;;;;;;;0.49;92.61;101426.06;4991894;28;20038;-74
2022/01/10 05:24:09;;;;;;;32.92;17.02;;;;;;;0.52;93.04;101426.00;5009385;28;20030;-74
2022/01/10 05:26:35;;;;;;;34.63;15.02;;;;;;;0.54;92.37;101431.25;5009468;28;20068;-74
2022/01/10 05:29:01;;;;;;;31.85;15.13;;;;;;;0.57;92.68;101447.94;5009921;28;20712;-74
2022/01/10 05:31:28;;;;;;;31.98;15.40;;;;;;;0.56;92.27;101450.59;4993573;28;20026;-74
2022/01/10 05:33:54;;;;;;;32.90;13.40;;;;;;;0.58;92.30;101438.22;5008492;28;20030;-74
2022/01/10 05:36:19;;;;;;;29.95;14.93;;;;;;;0.60;92.42;101458.44;4991200;28;20401;-74
2022/01/10 05:38:44;;;;;;;32.85;15.93;;;;;;;0.60;92.44;101458.44;5008245;28;20037;-74
2022/01/10 05:41:11;;;;;;;32.97;15.80;;;;;;;0.61;92.28;101470.75;5008727;28;20040;-74
2022/01/10 05:43:36;;;;;;;29.80;16.00;;;;;;;0.66;92.24;101473.31;4987956;28;20034;-74
2022/01/10 05:46:03;;;;;;;30.70;16.85;;;;;;;0.64;92.35;101468.03;5009903;28;20504;-74
2022/01/10 05:48:30;;;;;;;30.40;16.13;;;;;;;0.66;92.33;101481.25;4987363;28;20022;-73
2022/01/10 05:50:56;;;;;;;31.23;17.25;;;;;;;0.65;92.77;101480.34;5007314;28;20061;-73
2022/01/10 05:53:22;;;;;;;29.67;15.95;;;;;;;0.66;92.58;101482.09;4993531;28;20061;-73
2022/01/10 05:55:48;;;;;;;28.65;15.27;;;;;;;0.63;92.07;101482.19;4991925;28;20021;-73
2022/01/10 05:58:13;;;;;;;36.20;18.13;;;;;;;0.64;92.45;101486.53;4990504;28;20021;-73
2022/01/10 06:00:39;;;;;;;37.15;16.33;;;;;;;0.65;92.64;101503.31;5008582;28;20099;-73
2022/01/10 06:03:05;;;;;;;34.90;15.35;;;;;;;0.67;92.61;101490.91;5004909;28;20061;-73
2022/01/10 06:05:31;;;;;;;30.13;15.30;;;;;;;0.69;92.40;101492.63;5006839;28;20033;-73
2022/01/10 06:08:02;;;;;;;32.35;16.27;;;;;;;0.68;92.38;101501.44;5006052;28;20473;-74
2022/01/10 06:10:29;;;;;;;29.33;15.82;;;;;;;0.71;92.19;101504.94;4994682;28;20038;-73
2022/01/10 06:12:55;;;;;;;33.13;16.73;;;;;;;0.69;92.41;101505.84;5009771;28;20037;-73
2022/01/10 06:15:20;;;;;;;30.42;14.25;;;;;;;0.72;92.49;101522.53;5007730;28;20136;-73
2022/01/10 06:17:45;;;;;;;30.20;15.50;;;;;;;0.72;92.32;101520.78;4994129;28;20041;-73
2022/01/10 06:20:11;;;;;;;29.65;15.43;;;;;;;0.74;92.19;101520.75;4998445;28;20406;-73
2022/01/10 06:22:37;;;;;;;31.17;17.48;;;;;;;0.75;92.56;101530.41;5008529;28;20025;-73
2022/01/10 06:25:03;;;;;;;30.77;16.08;;;;;;;0.75;92.75;101525.13;4998610;28;20784;-73
2022/01/10 06:27:29;;;;;;;27.50;15.50;;;;;;;0.76;92.35;101537.47;5009052;28;20025;-73
2022/01/10 06:29:54;;;;;;;39.90;17.42;;;;;;;0.77;92.43;101539.22;5007943;28;20052;-73
2022/01/10 06:32:19;;;;;;;32.95;15.93;;;;;;;0.80;92.83;101549.72;4988943;28;20132;-73
2022/01/10 06:34:45;;;;;;;32.22;16.92;;;;;;;0.81;92.34;101554.97;5008603;28;20136;-73
2022/01/10 06:37:10;;;;;;;32.63;18.33;;;;;;;0.83;92.61;101554.94;5009031;28;20128;-73
2022/01/10 06:39:36;;;;;;;31.48;17.35;;;;;;;0.85;92.79;101561.09;4990402;28;20025;-73
2022/01/10 06:42:01;;;;;;;32.33;17.35;;;;;;;0.86;92.35;101570.75;5007233;28;20030;-73
2022/01/10 06:44:27;;;;;;;30.30;16.95;;;;;;;0.87;92.12;101569.84;5008720;28;20104;-73
2022/01/10 06:46:52;;;;;;;30.70;16.42;;;;;;;0.87;92.36;101569.84;4990015;28;20116;-73
2022/01/10 06:49:18;;;;;;;32.00;15.88;;;;;;;0.87;92.24;101576.00;4990053;28;20034;-73
2022/01/10 06:51:43;;;;;;;30.73;16.67;;;;;;;0.89;92.09;101575.97;4988077;28;20703;-73
2022/01/10 06:54:08;;;;;;;30.30;16.35;;;;;;;0.89;92.40;101583.91;4991626;28;20449;-73
2022/01/10 06:56:34;;;;;;;33.70;16.55;;;;;;;0.89;92.24;101588.34;5009831;28;20036;-73
2022/01/10 06:58:59;;;;;;;35.45;16.55;;;;;;;0.89;92.25;101585.69;5009725;28;20735;-74
2022/01/10 07:01:24;;;;;;;30.65;16.10;;;;;;;0.90;92.38;101600.69;4993470;28;20504;-74
2022/01/10 07:03:53;;;;;;;32.60;16.73;;;;;;;0.89;92.07;101606.88;5006459;28;20044;-74
2022/01/10 07:06:18;;;;;;;27.67;16.38;;;;;;;0.89;92.28;101615.69;4990336;28;20083;-74
2022/01/10 07:08:43;;;;;;;33.70;18.65;;;;;;;0.89;92.33;101617.47;5010227;28;20378;-74
2022/01/10 07:11:09;;;;;;;31.10;18.17;;;;;;;0.86;92.68;101621.94;5008447;28;20061;-74
2022/01/10 07:13:35;;;;;;;29.52;16.50;;;;;;;0.84;92.78;101630.78;5008917;28;20703;-74
2022/01/10 07:16:00;;;;;;;35.20;16.55;;;;;;;0.81;92.71;101638.78;4989029;28;20041;-73
2022/01/10 07:18:26;;;;;;;35.97;16.42;;;;;;;0.82;92.00;101643.16;5005921;28;20080;-73
2022/01/10 07:20:51;;;;;;;35.60;19.08;;;;;;;0.80;92.36;101632.59;5008666;28;20026;-73
2022/01/10 07:23:16;;;;;;;27.98;14.85;;;;;;;0.82;92.83;101643.16;5011200;28;20024;-73
2022/01/10 07:25:41;;;;;;;29.88;16.40;;;;;;;0.80;92.21;101652.91;5007416;28;20080;-73
2022/01/10 07:28:07;;;;;;;33.33;17.35;;;;;;;0.79;92.09;101661.75;4989197;28;20050;-73
2022/01/10 07:30:32;;;;;;;33.20;17.38;;;;;;;0.77;92.04;101669.72;4989639;28;20040;-73
2022/01/10 07:32:57;;;;;;;28.05;16.40;;;;;;;0.76;92.19;101672.41;4993924;28;20136;-73
2022/01/10 07:35:22;;;;;;;31.48;18.08;;;;;;;0.73;92.27;101686.53;4989862;28;20037;-72
2022/01/10 07:37:48;;;;;;;29.20;15.50;;;;;;;0.69;92.46;101683.09;4996674;28;20033;-73
2022/01/10 07:40:14;;;;;;;33.88;17.73;;;;;;;0.69;92.56;101688.41;4992479;28;20064;-73
2022/01/10 07:42:39;;;;;;;30.80;16.98;;;;;;;0.71;92.27;101698.09;5006790;28;20371;-73
2022/01/10 07:45:04;;;;;;;29.48;14.15;;;;;;;0.71;92.31;101706.88;4994506;28;20034;-73
2022/01/10 07:47:31;;;;;;;30.77;16.23;;;;;;;0.71;92.53;101712.19;4993635;28;20129;-73
2022/01/10 07:49:56;;;;;;;35.78;16.48;;;;;;;0.65;92.03;101713.16;5009139;28;20032;-73
2022/01/10 07:52:22;;;;;;;31.48;16.05;;;;;;;0.64;91.91;101719.34;4990592;28;20389;-73
2022/01/10 07:54:48;;;;;;;35.33;16.95;;;;;;;0.63;91.83;101730.84;4998778;28;20076;-73
2022/01/10 07:57:13;;;;;;;33.40;16.20;;;;;;;0.64;92.03;101737.84;5010854;28;20470;-73
2022/01/10 07:59:40;;;;;;;32.30;17.27;;;;;;;0.60;92.24;101736.19;5012575;28;20083;-74
2022/01/10 08:02:06;;;;;;;31.70;15.77;;;;;;;0.62;92.20;101744.97;5014758;28;20030;-74
2022/01/10 08:04:31;;;;;;;34.03;17.38;;;;;;;0.59;91.73;101746.81;5011535;28;20072;-74
2022/01/10 08:06:56;;;;;;;33.70;17.88;;;;;;;0.59;92.08;101749.44;5011123;28;20066;-74
2022/01/10 08:09:21;;;;;;;34.10;18.92;;;;;;;0.60;92.55;101749.41;5012566;28;20033;-74
2022/01/10 08:11:47;;;;;;;33.78;17.17;;;;;;;0.59;92.08;101755.59;5006068;28;20108;-74
2022/01/10 08:14:12;;;;;;;33.78;18.38;;;;;;;0.58;92.51;101767.06;5008878;28;20049;-73
2022/01/10 08:16:37;;;;;;;33.47;18.02;;;;;;;0.56;92.55;101766.22;5009454;28;20490;-73
2022/01/10 08:19:03;;;;;;;33.67;18.60;;;;;;;0.57;92.65;101768.00;4994177;28;20038;-73
2022/01/10 08:21:28;;;;;;;37.13;17.38;;;;;;;0.60;92.39;101780.28;4992427;28;21358;-73
2022/01/10 08:23:53;;;;;;;30.95;18.00;;;;;;;0.60;92.30;101785.56;4995361;28;20084;-73
2022/01/10 08:26:19;;;;;;;36.70;18.48;;;;;;;0.60;92.23;101788.22;5002997;28;20040;-73
2022/01/10 08:28:44;;;;;;;35.38;16.95;;;;;;;0.62;91.85;101792.59;5011620;28;20039;-73
2022/01/10 08:31:10;;;;;;;31.13;16.38;;;;;;;0.63;92.21;101790.78;5013724;28;20028;-73
2022/01/10 08:33:36;;;;;;;34.30;16.98;;;;;;;0.67;92.06;101803.97;5011700;28;20392;-73
2022/01/10 08:36:01;;;;;;;32.92;17.42;;;;;;;0.72;92.37;101816.22;5012727;28;20121;-73
2022/01/10 08:38:27;;;;;;;34.83;19.48;;;;;;;0.74;91.88;101822.38;5009150;28;20042;-73
2022/01/10 08:40:52;;;;;;;33.67;20.02;;;;;;;0.79;92.21;101820.53;5012552;28;20045;-73
2022/01/10 08:43:17;;;;;;;34.60;18.15;;;;;;;0.82;92.02;101828.41;4996342;28;20036;-73
2022/01/10 08:45:43;;;;;;;32.97;17.77;;;;;;;0.81;91.75;101834.63;5009095;28;20089;-73
2022/01/10 08:48:09;;;;;;;36.78;17.60;;;;;;;0.82;91.96;101837.22;5010116;28;20038;-73
2022/01/10 08:50:35;;;;;;;33.63;17.23;;;;;;;0.82;91.36;101853.13;5010620;28;20041;-73
2022/01/10 08:53:03;;;;;;;31.63;16.85;;;;;;;0.83;91.66;101854.84;5008058;28;20401;-73
2022/01/10 08:55:28;;;;;;;33.38;16.85;;;;;;;0.86;91.55;101861.88;4992577;28;20033;-73
2022/01/10 08:57:53;;;;;;;31.83;17.13;;;;;;;0.87;91.65;101866.25;5015092;28;20029;-73
2022/01/10 09:00:18;;;;;;;31.38;15.77;;;;;;;0.87;91.66;101871.56;4995858;28;20104;-73
2022/01/10 09:02:44;;;;;;;32.78;17.35;;;;;;;0.90;91.60;101879.44;5009529;28;20043;-73
2022/01/10 09:05:09;;;;;;;35.55;17.75;;;;;;;0.93;92.17;101874.09;5009683;28;20036;-73
2022/01/10 09:07:35;;;;;;;31.20;16.33;;;;;;;0.96;91.37;101879.34;5008426;28;20025;-73
2022/01/10 09:10:00;;;;;;;37.25;17.15;;;;;;;0.99;91.74;101879.28;5011713;28;20764;-73
2022/01/10 09:12:25;;;;;;;32.97;17.73;;;;;;;1.02;91.91;101881.88;5008571;28;20076;-73
2022/01/10 09:14:51;;;;;;;34.85;17.25;;;;;;;1.03;91.42;101891.56;4990456;28;20041;-73
2022/01/10 09:17:16;;;;;;;29.70;16.52;;;;;;;1.05;91.46;101886.25;4990100;28;20038;-73
2022/01/10 09:19:41;;;;;;;30.67;16.05;;;;;;;1.09;91.80;101892.38;5008860;28;20037;-73
2022/01/10 09:22:07;;;;;;;31.98;16.85;;;;;;;1.09;91.56;101895.03;4988465;28;20104;-73
2022/01/10 09:24:32;;;;;;;29.25;15.43;;;;;;;1.12;91.72;101900.28;5011857;28;20030;-73
2022/01/10 09:26:57;;;;;;;30.63;15.30;;;;;;;1.12;91.50;101893.19;4991613;28;20036;-73
2022/01/10 09:29:24;;;;;;;33.10;16.05;;;;;;;1.15;91.46;101908.16;5011609;28;20030;-73
2022/01/10 09:31:50;;;;;;;32.00;16.60;;;;;;;1.13;91.07;101908.19;5012179;28;20030;-73
2022/01/10 09:34:15;;;;;;;32.25;16.42;;;;;;;1.12;91.05;101918.81;5010845;28;20056;-73
2022/01/10 09:36:40;;;;;;;32.28;16.40;;;;;;;1.12;90.98;101913.50;5007254;28;20061;-73
2022/01/10 09:39:06;;;;;;;35.58;17.45;;;;;;;1.08;90.12;101911.81;5009166;28;20033;-73
2022/01/10 09:41:32;;;;;;;34.47;17.38;;;;;;;1.09;90.62;101910.91;5011077;28;20371;-73
2022/01/10 09:44:01;;;;;;;34.90;16.85;;;;;;;1.09;91.19;101921.50;5009637;28;20036;-73
2022/01/10 09:46:27;;;;;;;31.40;16.13;;;;;;;1.11;91.45;101920.56;4990854;28;20861;-73
2022/01/10 09:48:53;;;;;;;30.60;15.80;;;;;;;1.14;91.41;101927.59;5009249;28;20124;-73
2022/01/10 09:51:21;;;;;;;32.25;15.05;;;;;;;1.18;91.21;101930.16;5009366;28;20622;-73
2022/01/10 09:53:47;;;;;;;30.92;15.63;;;;;;;1.21;91.40;101930.09;4990512;28;20033;-73
2022/01/10 09:56:12;;;;;;;32.90;16.23;;;;;;;1.24;91.26;101931.81;4991996;28;20072;-73
2022/01/10 09:58:37;;;;;;;30.25;14.45;;;;;;;1.29;90.68;101940.59;4992095;28;20490;-73
2022/01/10 10:01:03;;;;;;;29.05;13.10;;;;;;;1.30;90.67;101944.94;5008581;28;20034;-73
2022/01/10 10:03:29;;;;;;;29.77;13.85;;;;;;;1.32;90.05;101948.47;5008616;28;20045;-74
2022/01/10 10:05:55;;;;;;;27.15;12.75;;;;;;;1.34;90.20;101949.31;5007359;28;20473;-73
2022/01/10 10:08:22;;;;;;;28.90;14.27;;;;;;;1.37;90.49;101959.84;4990777;28;20022;-73
2022/01/10 10:10:48;;;;;;;26.17;12.57;;;;;;;1.39;90.82;101966.00;5007952;28;20053;-74
2022/01/10 10:13:15;;;;;;;30.52;14.27;;;;;;;1.39;90.40;101976.59;5006854;28;20037;-74
2022/01/10 10:15:41;;;;;;;33.33;15.10;;;;;;;1.44;90.79;101984.47;5009100;28;20030;-73
2022/01/10 10:18:08;;;;;;;28.70;13.85;;;;;;;1.48;90.95;101990.56;5008052;28;20034;-73
2022/01/10 10:20:34;;;;;;;34.20;14.98;;;;;;;1.57;91.31;101993.09;5006563;28;20502;-73
2022/01/10 10:23:02;;;;;;;32.53;14.00;;;;;;;1.65;90.60;102009.72;4991519;28;20022;-73
2022/01/10 10:25:27;;;;;;;26.73;14.65;;;;;;;1.70;91.13;102010.50;5007686;28;20042;-73
2022/01/10 10:27:52;;;;;;;28.98;14.68;;;;;;;1.73;90.67;102015.75;4992636;28;20537;-73
2022/01/10 10:30:27;;;;;;;28.98;15.55;;;;;;;1.79;91.15;102016.53;5006687;28;20034;-73
2022/01/10 10:33:14;;;;;;;30.70;15.18;;;;;;;1.80;90.82;102020.94;5006434;28;20351;-73
2022/01/10 10:35:41;;;;;;;32.85;14.68;;;;;;;1.86;91.35;102013.78;5009811;28;20142;-73
2022/01/10 10:38:06;;;;;;;28.67;14.20;;;;;;;1.91;91.28;102017.19;5005020;28;20038;-73
2022/01/10 10:40:39;;;;;;;25.77;12.98;;;;;;;1.97;90.54;102025.97;4992022;28;20072;-73
2022/01/10 10:43:07;;;;;;;30.23;14.35;;;;;;;1.99;90.39;102029.44;4993981;28;20030;-73
2022/01/10 10:45:32;;;;;;;30.27;14.32;;;;;;;2.02;90.14;102032.94;5008386;28;20034;-73
2022/01/10 10:47:59;;;;;;;27.98;14.27;;;;;;;2.06;90.07;102036.38;4994312;28;20381;-73
2022/01/10 10:50:28;;;;;;;29.73;13.95;;;;;;;2.10;90.67;102028.34;4990680;28;20509;-73
2022/01/10 10:52:54;;;;;;;28.90;13.07;;;;;;;2.14;90.80;102029.16;4988433;28;20026;-73
2022/01/10 10:55:19;;;;;;;29.02;13.73;;;;;;;2.18;90.77;102028.22;5009788;28;20109;-73
2022/01/10 10:57:45;;;;;;;30.85;14.18;;;;;;;2.24;90.54;102035.16;5006920;28;20411;-73
2022/01/10 11:00:15;;;;;;;29.83;14.13;;;;;;;2.24;90.15;102029.84;5009293;28;20114;-73
2022/01/10 11:02:41;;;;;;;29.75;16.40;;;;;;;2.27;90.03;102033.31;5009518;28;20109;-73
2022/01/10 11:05:08;;;;;;;29.67;15.45;;;;;;;2.30;89.65;102044.75;5006932;28;20377;-73
2022/01/10 11:07:35;;;;;;;32.45;15.30;;;;;;;2.34;89.97;102042.00;4991309;28;20072;-73
2022/01/10 11:10:07;;;;;;;31.88;16.35;;;;;;;2.36;89.81;102049.97;4988406;28;20065;-73
2022/01/10 11:12:41;;;;;;;33.25;15.55;;;;;;;2.40;89.48;102057.84;5008931;28;20465;-73
2022/01/10 11:15:08;;;;;;;30.08;15.00;;;;;;;2.43;89.47;102062.19;5009894;28;20060;-73
2022/01/10 11:17:33;;;;;;;31.70;16.52;;;;;;;2.45;89.00;102066.56;5006470;28;20026;-73
2022/01/10 11:20:19;;;;;;;32.45;14.90;;;;;;;2.50;89.28;102069.13;4992526;28;20448;-73
2022/01/10 11:22:50;;;;;;;36.25;16.17;;;;;;;2.52;88.89;102074.41;5007888;28;20074;-73